Time;durP1;ratioP1;P1;durP2;ratioP2;P2;SDS_P1;SDS_P2;PMS_P1;PMS_P2;Temp;Humidity;BMP_temperature;BMP_pressure;BME280_temperature;BME280_humidity;BME280_pressure;Samples;Min_cycle;Max_cycle;Signal;HPM_P1;HPM_P2
2022/07/23 00:03:47;;;;;;;11.27;8.43;;;;;;;19.36;60.55;101272.16;684642;28;1206;-95
2022/07/23 00:04:08;;;;;;;9.70;8.40;;;;;;;19.33;60.59;101262.44;680695;29;1327;-95
2022/07/23 00:04:28;;;;;;;9.07;8.17;;;;;;;19.29;60.90;101264.22;675773;29;1186;-95
2022/07/23 00:04:49;;;;;;;8.93;8.10;;;;;;;19.30;61.00;101262.47;673003;29;1375;-96
2022/07/23 00:05:10;;;;;;;9.77;8.05;;;;;;;19.30;61.28;101257.16;678167;29;1452;-95
2022/07/23 00:05:31;;;;;;;10.90;8.18;;;;;;;19.31;61.53;101264.22;675810;29;1107;-94
2022/07/23 00:05:52;;;;;;;10.77;8.05;;;;;;;19.26;61.72;101260.69;678073;29;1262;-95
2022/07/23 00:06:13;;;;;;;9.60;8.02;;;;;;;19.23;61.70;101252.75;677857;29;1162;-95
2022/07/23 00:06:34;;;;;;;9.35;7.93;;;;;;;19.28;61.97;101258.91;678253;29;1402;-96
2022/07/23 00:06:55;;;;;;;12.98;8.32;;;;;;;19.31;61.78;101264.22;683320;29;1182;-95
2022/07/23 00:07:15;;;;;;;13.48;8.27;;;;;;;19.28;61.93;101258.91;678252;29;1314;-94
2022/07/23 00:07:36;;;;;;;14.13;8.33;;;;;;;19.28;61.86;101253.63;678381;29;1212;-95
2022/07/23 00:08:51;;;;;;;12.07;8.63;;;;;;;19.32;62.06;101264.19;678228;29;1183;-95
2022/07/23 00:09:12;;;;;;;12.07;8.82;;;;;;;19.25;62.52;101253.63;672906;29;1263;-93
2022/07/23 00:09:32;;;;;;;10.48;9.07;;;;;;;19.28;62.53;101262.44;675671;29;1188;-94
2022/07/23 00:09:54;;;;;;;10.20;8.70;;;;;;;19.22;62.70;101249.22;678113;29;1130;-94
2022/07/23 00:10:15;;;;;;;10.15;8.70;;;;;;;19.25;62.67;101248.34;674743;29;1266;-93
2022/07/23 00:10:36;;;;;;;10.53;8.73;;;;;;;19.24;62.66;101259.81;675586;29;1196;-93
2022/07/23 00:10:57;;;;;;;11.30;9.57;;;;;;;19.23;62.96;101258.91;678228;29;1139;-94
2022/07/23 00:11:18;;;;;;;12.85;9.98;;;;;;;19.10;63.19;101236.88;675569;29;1206;-93
2022/07/23 00:11:39;;;;;;;13.95;10.10;;;;;;;19.17;63.68;101258.91;675678;29;1179;-94
2022/07/23 00:11:59;;;;;;;15.55;9.80;;;;;;;19.14;63.85;101241.31;675573;29;1304;-94
2022/07/23 00:12:21;;;;;;;13.75;9.90;;;;;;;19.24;63.91;101254.50;675533;29;1288;-94
2022/07/23 00:12:42;;;;;;;13.57;10.10;;;;;;;19.23;64.09;101244.81;678146;29;1367;-93
2022/07/23 00:13:03;;;;;;;15.23;11.38;;;;;;;19.21;64.20;101236.88;673121;29;1317;-93
2022/07/23 00:13:23;;;;;;;16.08;11.50;;;;;;;19.29;64.27;101256.28;675651;29;1335;-94
2022/07/23 00:13:44;;;;;;;16.35;11.75;;;;;;;19.31;64.58;101248.34;673129;29;1317;-94
2022/07/23 00:14:05;;;;;;;15.95;11.60;;;;;;;19.30;64.74;101247.44;675526;29;1406;-94
2022/07/23 00:14:26;;;;;;;13.90;11.07;;;;;;;19.26;64.80;101237.75;675679;29;1089;-93
2022/07/23 00:14:47;;;;;;;13.60;10.48;;;;;;;19.32;65.13;101243.03;675634;29;1196;-94
2022/07/23 00:15:08;;;;;;;11.85;9.60;;;;;;;19.30;65.05;101243.94;675356;29;1911;-93
2022/07/23 00:15:29;;;;;;;12.20;9.50;;;;;;;19.26;65.02;101226.28;678140;29;1150;-94
2022/07/23 00:15:50;;;;;;;10.95;9.50;;;;;;;19.25;65.22;101228.03;678424;29;1291;-94
2022/07/23 00:16:10;;;;;;;11.00;9.60;;;;;;;19.28;64.97;101227.16;672908;29;1175;-93
2022/07/23 00:16:31;;;;;;;11.65;10.45;;;;;;;19.22;65.11;101224.50;678300;29;1200;-93
2022/07/23 00:16:53;;;;;;;12.05;10.48;;;;;;;19.26;64.85;101223.63;678156;29;1275;-93
2022/07/23 00:17:14;;;;;;;12.40;10.50;;;;;;;19.25;65.05;101224.53;680829;29;1237;-94
2022/07/23 00:17:34;;;;;;;13.50;10.40;;;;;;;19.27;65.12;101222.75;678396;29;1170;-93
2022/07/23 00:17:55;;;;;;;15.98;10.75;;;;;;;19.29;65.01;101234.19;677939;29;1200;-93
2022/07/23 00:18:16;;;;;;;16.20;11.02;;;;;;;19.27;65.16;101214.81;672803;29;1229;-93
2022/07/23 00:18:37;;;;;;;15.63;10.73;;;;;;;19.23;65.56;101207.78;673106;29;1145;-93
2022/07/23 00:19:01;;;;;;;16.48;10.77;;;;;;;19.28;65.21;101221.88;678033;29;1231;-94
2022/07/23 00:19:21;;;;;;;16.88;10.45;;;;;;;19.26;65.36;101228.94;678152;29;1279;-94
2022/07/23 00:19:42;;;;;;;16.83;10.27;;;;;;;19.29;65.47;101223.63;675478;29;1256;-94
2022/07/23 00:20:03;;;;;;;15.00;10.18;;;;;;;19.18;65.33;101206.00;675429;29;1180;-94
2022/07/23 00:20:24;;;;;;;14.23;9.75;;;;;;;19.22;65.37;101206.00;680964;29;1406;-93
2022/07/23 00:20:45;;;;;;;13.88;10.05;;;;;;;19.22;65.47;101206.00;683571;29;1246;-94
2022/07/23 00:21:07;;;;;;;13.23;9.93;;;;;;;19.26;65.69;101218.34;675574;29;1238;-93
2022/07/23 00:21:27;;;;;;;12.90;10.45;;;;;;;19.18;65.60;101206.00;675623;29;1262;-94
2022/07/23 00:21:48;;;;;;;12.23;10.30;;;;;;;19.22;65.63;101211.28;675587;29;1175;-94
2022/07/23 00:22:09;;;;;;;13.10;10.52;;;;;;;19.25;65.79;101211.28;678261;29;1120;-94
2022/07/23 00:22:29;;;;;;;12.27;10.25;;;;;;;19.24;65.60;101204.25;675618;29;1290;-94
2022/07/23 00:22:53;;;;;;;11.20;9.90;;;;;;;19.22;65.59;101206.88;673165;29;1288;-93
2022/07/23 00:23:13;;;;;;;10.80;9.63;;;;;;;19.20;65.75;101203.38;675600;29;1243;-94
2022/07/23 00:23:34;;;;;;;11.90;9.50;;;;;;;19.14;65.88;101195.44;678290;29;1272;-95
2022/07/23 00:23:55;;;;;;;12.70;9.77;;;;;;;19.15;65.74;101192.78;678146;29;1304;-94
2022/07/23 00:24:16;;;;;;;12.93;10.10;;;;;;;19.20;65.82;101205.13;678227;29;1227;-94
2022/07/23 00:24:36;;;;;;;11.70;10.50;;;;;;;19.14;65.71;101198.97;675602;29;1249;-94
2022/07/23 00:24:57;;;;;;;11.63;10.43;;;;;;;19.14;65.77;101198.97;670510;29;1222;-94
2022/07/23 00:25:19;;;;;;;12.35;10.40;;;;;;;19.14;65.91;101193.69;678300;29;1236;-95
2022/07/23 00:25:40;;;;;;;13.75;10.90;;;;;;;19.13;65.91;101194.53;680991;29;1271;-94
2022/07/23 00:26:00;;;;;;;14.45;11.30;;;;;;;19.17;66.08;101198.94;673100;29;1449;-94
2022/07/23 00:26:21;;;;;;;12.93;11.03;;;;;;;19.11;66.00;101188.38;675647;29;1180;-94
2022/07/23 00:26:42;;;;;;;12.10;10.80;;;;;;;19.11;66.04;101193.66;678301;29;1280;-94
2022/07/23 00:27:03;;;;;;;12.10;10.90;;;;;;;19.10;66.00;101186.63;678128;29;1147;-94
2022/07/23 00:27:24;;;;;;;12.02;10.77;;;;;;;19.14;66.00;101193.69;678253;29;1225;-93
2022/07/23 00:27:45;;;;;;;11.88;10.68;;;;;;;19.14;66.08;101193.69;678290;29;1235;-96
2022/07/23 00:28:06;;;;;;;11.95;10.05;;;;;;;19.10;66.05;101191.91;675505;29;1278;-96
2022/07/23 00:28:26;;;;;;;12.13;10.13;;;;;;;19.08;66.27;101183.09;673003;29;1314;-94
2022/07/23 00:28:47;;;;;;;13.47;10.40;;;;;;;19.00;66.08;101179.53;673028;29;1292;-94
2022/07/23 00:29:08;;;;;;;13.23;10.87;;;;;;;19.06;66.05;101190.16;675454;29;1209;-94
2022/07/23 00:29:28;;;;;;;13.23;11.05;;;;;;;19.09;66.16;101192.78;673069;29;1194;-94
2022/07/23 00:29:50;;;;;;;14.15;11.00;;;;;;;19.03;66.18;101184.84;675718;29;1365;-96
2022/07/23 00:30:12;;;;;;;13.27;10.73;;;;;;;19.02;66.18;101183.06;675653;29;1233;-94
2022/07/23 00:30:33;;;;;;;12.80;10.10;;;;;;;19.01;66.28;101186.59;678271;29;1443;-93
2022/07/23 00:30:55;;;;;;;11.30;10.10;;;;;;;18.99;66.13;101188.38;675546;29;1079;-95
2022/07/23 00:31:16;;;;;;;12.55;10.20;;;;;;;19.01;66.18;101191.88;673077;29;1374;-94
2022/07/23 00:31:37;;;;;;;11.95;9.93;;;;;;;18.97;66.11;101182.19;673003;29;1191;-94
2022/07/23 00:31:58;;;;;;;11.70;9.88;;;;;;;18.99;66.35;101186.59;672968;29;1263;-94
2022/07/23 00:32:19;;;;;;;12.15;10.00;;;;;;;18.98;66.15;101186.56;680793;29;1273;-93
2022/07/23 00:32:47;;;;;;;12.43;10.20;;;;;;;19.00;66.32;101195.41;678194;29;1277;-93
2022/07/23 00:33:07;;;;;;;11.90;10.10;;;;;;;18.99;66.20;101193.66;680758;29;1251;-94
2022/07/23 00:33:28;;;;;;;11.48;10.13;;;;;;;18.90;66.03;101179.56;678253;29;1288;-94
2022/07/23 00:33:49;;;;;;;11.23;9.95;;;;;;;18.94;66.21;101191.00;678237;29;1206;-94
2022/07/23 00:34:10;;;;;;;11.98;9.70;;;;;;;18.94;66.36;101192.75;675516;29;1233;-93
2022/07/23 00:34:31;;;;;;;12.55;9.63;;;;;;;18.92;66.33;101195.41;678087;29;1409;-95
2022/07/23 00:34:52;;;;;;;12.77;9.95;;;;;;;18.84;66.18;101173.38;675544;29;1288;-94
2022/07/23 00:35:13;;;;;;;12.73;10.73;;;;;;;18.91;66.36;101191.91;675564;29;1980;-93
2022/07/23 00:35:40;;;;;;;13.98;11.30;;;;;;;18.89;66.55;101198.91;675585;29;1411;-94
2022/07/23 00:36:01;;;;;;;14.95;11.85;;;;;;;18.88;66.60;101194.53;672885;29;1191;-93
2022/07/23 00:36:23;;;;;;;13.27;11.20;;;;;;;18.89;66.42;101198.91;672825;29;1175;-93
2022/07/23 00:36:44;;;;;;;12.57;10.82;;;;;;;18.88;66.62;101199.81;677537;29;1316;-93
2022/07/23 00:37:04;;;;;;;13.03;10.90;;;;;;;18.83;66.51;101183.09;677915;29;1337;-94
2022/07/23 00:37:25;;;;;;;14.98;11.32;;;;;;;18.89;66.41;101203.34;678089;29;1341;-93
2022/07/23 00:37:46;;;;;;;16.38;11.90;;;;;;;18.88;66.61;101194.53;670309;29;1335;-92
2022/07/23 00:38:09;;;;;;;16.00;12.30;;;;;;;18.84;66.79;101189.22;672776;29;1308;-92
2022/07/23 00:38:30;;;;;;;15.98;11.98;;;;;;;18.88;66.66;101191.88;675556;29;1222;-92
2022/07/23 00:38:50;;;;;;;16.35;11.57;;;;;;;18.89;66.89;101198.91;675605;29;1294;-93
2022/07/23 00:39:11;;;;;;;16.03;10.93;;;;;;;18.88;66.73;101199.81;677945;29;1128;-93
2022/07/23 00:39:32;;;;;;;16.23;11.45;;;;;;;18.91;66.73;101199.81;680247;29;1263;-93
2022/07/23 00:39:53;;;;;;;16.13;12.20;;;;;;;18.91;66.78;101199.81;678118;29;1284;-93
2022/07/23 00:40:14;;;;;;;16.35;12.48;;;;;;;18.87;66.90;101189.25;680817;29;1127;-92
2022/07/23 00:40:36;;;;;;;16.38;12.32;;;;;;;18.90;66.77;101194.53;678269;29;1238;-93
2022/07/23 00:40:56;;;;;;;17.23;12.55;;;;;;;18.83;66.95;101188.38;672904;29;1416;-95
2022/07/23 00:41:17;;;;;;;17.67;13.13;;;;;;;18.85;67.04;101186.59;675385;29;1225;-93
2022/07/23 00:41:37;;;;;;;19.23;13.50;;;;;;;18.90;67.07;101203.34;675583;29;1345;-94
2022/07/23 00:41:58;;;;;;;19.63;13.20;;;;;;;18.88;67.04;101197.16;673096;29;1155;-93
2022/07/23 00:42:19;;;;;;;18.17;12.50;;;;;;;18.88;67.19;101197.16;675463;29;1295;-93
2022/07/23 00:42:39;;;;;;;16.38;11.85;;;;;;;18.86;67.21;101187.47;678051;29;1381;-94
2022/07/23 00:43:00;;;;;;;15.40;11.63;;;;;;;18.87;67.22;101195.41;677683;29;1123;-93
2022/07/23 00:43:21;;;;;;;15.77;11.60;;;;;;;18.88;67.25;101197.16;680820;29;1177;-94
2022/07/23 00:43:42;;;;;;;16.27;11.90;;;;;;;18.87;67.14;101195.41;678227;29;1209;-94
2022/07/23 00:44:19;;;;;;;17.40;11.77;;;;;;;18.89;67.25;101198.91;677967;29;1141;-92
2022/07/23 00:44:40;;;;;;;17.90;11.80;;;;;;;18.87;67.33;101200.69;680767;29;1221;-93
2022/07/23 00:45:00;;;;;;;17.88;11.73;;;;;;;18.87;67.40;101205.97;675419;29;1190;-93
2022/07/23 00:45:21;;;;;;;19.80;12.48;;;;;;;18.82;67.37;101197.19;675490;29;1261;-93
2022/07/23 00:45:42;;;;;;;17.70;12.27;;;;;;;18.78;67.22;101195.41;678187;29;1351;-94
2022/07/23 00:46:03;;;;;;;15.95;12.02;;;;;;;18.76;67.25;101197.19;675380;29;1242;-94
2022/07/23 00:46:25;;;;;;;15.30;11.60;;;;;;;18.75;67.21;101198.94;675537;29;1281;-94
2022/07/23 00:46:48;;;;;;;15.45;11.60;;;;;;;18.74;67.71;101193.63;678119;29;1207;-94
2022/07/23 00:47:08;;;;;;;16.35;12.07;;;;;;;18.75;67.35;101200.69;678089;29;1241;-94
2022/07/23 00:47:29;;;;;;;16.25;12.13;;;;;;;18.71;67.34;101188.34;680700;29;1280;-94
2022/07/23 00:47:50;;;;;;;16.60;12.40;;;;;;;18.78;67.58;101205.97;672995;29;1396;-95
2022/07/23 00:48:11;;;;;;;16.50;12.30;;;;;;;18.73;67.57;101197.16;675448;29;1199;-93
2022/07/23 00:48:32;;;;;;;17.58;12.20;;;;;;;18.71;67.53;101194.53;675561;29;1079;-94
2022/07/23 00:48:53;;;;;;;17.23;12.20;;;;;;;18.70;67.75;101191.88;672952;29;1223;-94
2022/07/23 00:49:14;;;;;;;19.43;12.40;;;;;;;18.70;67.58;101191.88;672913;29;1120;-94
2022/07/23 00:49:35;;;;;;;18.58;12.23;;;;;;;18.71;67.60;101194.53;675569;29;1252;-93
2022/07/23 00:49:56;;;;;;;17.80;11.70;;;;;;;18.73;67.68;101202.44;678091;29;1202;-94
2022/07/23 00:50:16;;;;;;;16.80;11.67;;;;;;;18.66;67.95;101190.09;678142;29;1306;-94
2022/07/23 00:50:38;;;;;;;15.93;11.93;;;;;;;18.69;67.72;101196.28;675558;29;1417;-93
2022/07/23 00:50:58;;;;;;;17.77;11.93;;;;;;;18.63;67.65;101191.00;677634;29;1277;-93
2022/07/23 00:51:19;;;;;;;18.23;12.50;;;;;;;18.64;67.80;101193.63;672741;29;1396;-93
2022/07/23 00:51:40;;;;;;;18.20;12.38;;;;;;;18.58;68.00;101183.06;672972;29;1236;-93
2022/07/23 00:52:02;;;;;;;18.05;12.60;;;;;;;18.53;68.13;101200.66;672954;29;1331;-94
2022/07/23 00:52:23;;;;;;;17.67;12.00;;;;;;;18.53;68.42;101202.41;672847;29;1319;-93
2022/07/23 00:52:44;;;;;;;19.65;12.35;;;;;;;18.55;68.13;101195.41;676210;29;1113;-93
2022/07/23 00:53:05;;;;;;;17.83;12.15;;;;;;;18.58;68.14;101196.28;673493;29;1225;-93
2022/07/23 00:53:26;;;;;;;16.20;11.80;;;;;;;18.60;67.90;101202.44;678758;29;1301;-93
2022/07/23 00:53:47;;;;;;;15.32;11.85;;;;;;;18.60;67.99;101207.72;675525;29;1219;-93
2022/07/23 00:54:09;;;;;;;16.92;12.05;;;;;;;18.62;68.07;101205.06;678028;29;1249;-93
2022/07/23 00:54:30;;;;;;;18.55;12.70;;;;;;;18.63;68.07;101207.72;672901;29;1251;-94
2022/07/23 00:54:51;;;;;;;18.80;12.50;;;;;;;18.56;67.84;101198.03;675569;29;1171;-94
2022/07/23 00:55:12;;;;;;;18.30;12.23;;;;;;;18.59;67.93;101198.03;675288;29;1913;-94
2022/07/23 00:55:33;;;;;;;16.90;11.75;;;;;;;18.61;67.85;101206.84;680577;29;1348;-94
2022/07/23 00:55:54;;;;;;;16.35;12.07;;;;;;;18.57;67.69;101205.06;674916;29;1209;-93
2022/07/23 00:56:15;;;;;;;15.48;12.55;;;;;;;18.61;67.95;101208.59;678008;29;1183;-93
2022/07/23 00:56:38;;;;;;;14.98;12.88;;;;;;;18.56;67.95;101205.94;680710;29;1218;-94
2022/07/23 00:56:59;;;;;;;19.80;12.90;;;;;;;18.58;67.95;101206.84;678119;29;1246;-93
2022/07/23 00:57:19;;;;;;;19.73;12.57;;;;;;;18.60;68.05;101212.13;678198;29;1182;-93
2022/07/23 00:57:41;;;;;;;20.63;12.40;;;;;;;18.57;68.13;101202.41;680729;29;1501;-94
2022/07/23 00:58:02;;;;;;;16.25;12.30;;;;;;;18.54;68.04;101202.44;678004;29;1410;-95
2022/07/23 00:58:23;;;;;;;19.40;11.93;;;;;;;18.56;68.11;101205.09;675482;29;1310;-93
2022/07/23 00:58:44;;;;;;;18.27;11.77;;;;;;;18.59;68.03;101216.53;678017;29;1205;-94
2022/07/23 00:59:05;;;;;;;17.48;11.80;;;;;;;18.51;68.07;101199.78;678026;29;1443;-94
2022/07/23 00:59:26;;;;;;;14.98;12.23;;;;;;;18.58;67.97;101214.78;675433;29;1099;-93
2022/07/23 00:59:47;;;;;;;15.70;12.52;;;;;;;18.56;68.09;101219.16;680524;29;1218;-93
2022/07/23 01:00:11;;;;;;;16.05;12.55;;;;;;;18.57;68.11;101218.28;675756;29;1227;-94
2022/07/23 01:00:32;;;;;;;19.20;12.60;;;;;;;18.49;68.17;101209.44;672813;29;1209;-94
2022/07/23 01:00:53;;;;;;;19.60;12.23;;;;;;;18.49;68.25;101209.44;675438;29;1267;-93
2022/07/23 01:01:13;;;;;;;19.57;12.10;;;;;;;18.48;67.94;101213.88;672909;29;1242;-93
2022/07/23 01:01:34;;;;;;;15.95;12.02;;;;;;;18.49;68.19;101215.63;678096;29;1186;-93
2022/07/23 01:01:55;;;;;;;15.90;12.30;;;;;;;18.47;68.06;101213.88;677862;29;1374;-93
2022/07/23 01:02:16;;;;;;;16.10;12.48;;;;;;;18.45;68.21;101207.69;675432;29;1196;-93
2022/07/23 01:02:37;;;;;;;16.80;12.20;;;;;;;18.42;67.98;101212.97;678056;29;1302;-94
2022/07/23 01:02:58;;;;;;;17.70;12.00;;;;;;;18.43;68.15;101214.75;678007;29;1256;-93
2022/07/23 01:03:18;;;;;;;17.60;12.13;;;;;;;18.42;68.26;101219.13;680673;29;1268;-93
2022/07/23 01:03:39;;;;;;;17.30;12.25;;;;;;;18.42;68.05;101220.88;675326;29;1260;-93
2022/07/23 01:04:00;;;;;;;17.52;12.60;;;;;;;18.43;68.15;101214.75;672738;29;1385;-93
2022/07/23 01:04:21;;;;;;;17.52;12.45;;;;;;;18.39;68.06;101215.59;672835;29;1165;-93
2022/07/23 01:04:42;;;;;;;20.95;13.10;;;;;;;18.39;68.11;101221.78;672850;29;1164;-93
2022/07/23 01:05:03;;;;;;;19.13;12.57;;;;;;;18.43;68.04;101218.25;672723;29;1180;-92
2022/07/23 01:05:38;;;;;;;19.30;12.50;;;;;;;18.39;68.28;101219.16;670209;29;1342;-94
2022/07/23 01:05:58;;;;;;;15.82;11.45;;;;;;;18.39;68.38;101213.88;672750;29;1286;-93
2022/07/23 01:06:19;;;;;;;14.90;11.55;;;;;;;18.42;68.12;101216.50;672914;29;1080;-93
2022/07/23 01:06:40;;;;;;;14.20;11.48;;;;;;;18.35;67.97;101207.69;675431;29;1316;-93
2022/07/23 01:07:02;;;;;;;13.45;11.65;;;;;;;18.36;68.18;101209.44;678072;29;1190;-93
2022/07/23 01:07:23;;;;;;;13.68;12.20;;;;;;;18.34;68.08;101208.53;672898;29;1308;-93
2022/07/23 01:07:45;;;;;;;14.52;12.73;;;;;;;18.42;68.08;101219.13;672841;29;1214;-93
2022/07/23 01:08:06;;;;;;;15.88;13.15;;;;;;;18.44;68.35;101219.16;670168;29;1191;-94
2022/07/23 01:08:27;;;;;;;16.27;12.98;;;;;;;18.39;68.31;101210.31;667725;29;1391;-94
2022/07/23 01:08:48;;;;;;;17.50;13.30;;;;;;;18.48;68.15;101226.19;670256;29;1354;-93
2022/07/23 01:09:09;;;;;;;16.73;13.25;;;;;;;18.41;68.21;101216.47;670277;29;1344;-94
2022/07/23 01:09:31;;;;;;;17.50;13.13;;;;;;;18.44;68.28;101220.03;670341;29;1327;-93
2022/07/23 01:09:53;;;;;;;16.45;12.65;;;;;;;18.40;68.30;101205.06;675202;29;1251;-93
2022/07/23 01:10:33;;;;;;;15.80;12.15;;;;;;;18.36;68.42;101204.16;670162;29;1445;-94
2022/07/23 01:10:53;;;;;;;12.52;11.23;;;;;;;18.42;68.24;101202.38;677673;29;1219;-93
2022/07/23 01:11:14;;;;;;;13.83;11.87;;;;;;;18.41;68.30;101211.19;675440;29;1138;-94
2022/07/23 01:11:37;;;;;;;15.95;12.55;;;;;;;18.42;68.50;101207.69;675477;29;1317;-93
2022/07/23 01:12:01;;;;;;;17.30;13.10;;;;;;;18.45;68.49;101210.34;670117;29;1336;-93
2022/07/23 01:12:21;;;;;;;17.45;12.90;;;;;;;18.46;68.41;101202.44;675261;29;1261;-94
2022/07/23 01:12:42;;;;;;;16.98;12.88;;;;;;;18.44;68.52;101205.94;677973;29;1316;-94
2022/07/23 01:13:06;;;;;;;18.13;13.33;;;;;;;18.41;68.41;101195.34;672679;29;1142;-94
2022/07/23 01:13:26;;;;;;;16.73;13.13;;;;;;;18.46;68.64;101198.91;675286;29;1278;-93
2022/07/23 01:13:47;;;;;;;16.10;12.87;;;;;;;18.48;68.48;101203.31;675305;29;1416;-93
2022/07/23 01:14:16;;;;;;;14.43;12.23;;;;;;;18.49;68.38;101204.16;672736;29;1194;-93
2022/07/23 01:14:37;;;;;;;14.38;12.00;;;;;;;18.45;68.39;101195.34;675245;29;1198;-93
2022/07/23 01:14:59;;;;;;;16.48;12.70;;;;;;;18.47;68.54;101201.56;680348;29;1998;-93
2022/07/23 01:15:21;;;;;;;18.98;13.57;;;;;;;18.48;68.47;101199.75;678062;29;1299;-93
2022/07/23 01:15:42;;;;;;;18.50;13.95;;;;;;;18.51;68.55;101202.44;675271;29;1203;-92
2022/07/23 01:16:03;;;;;;;17.23;13.73;;;;;;;18.51;68.56;101207.72;672643;29;1289;-94
2022/07/23 01:16:24;;;;;;;16.38;13.98;;;;;;;18.48;68.51;101199.75;672800;29;1152;-94
2022/07/23 01:16:47;;;;;;;17.00;13.82;;;;;;;18.52;68.36;101204.19;675438;29;1149;-93
2022/07/23 01:17:07;;;;;;;17.35;13.93;;;;;;;18.54;68.67;101205.06;672754;29;1329;-92
2022/07/23 01:17:28;;;;;;;17.92;14.07;;;;;;;18.46;68.65;101185.69;672883;29;1145;-95
2022/07/23 01:17:49;;;;;;;18.58;13.85;;;;;;;18.48;68.62;101195.38;672670;29;1149;-93
2022/07/23 01:18:12;;;;;;;18.58;13.77;;;;;;;18.49;68.66;101188.31;677944;29;1319;-93
2022/07/23 01:18:33;;;;;;;18.92;13.43;;;;;;;18.44;68.69;101179.53;675432;29;1313;-93
2022/07/23 01:18:54;;;;;;;18.45;13.65;;;;;;;18.48;68.75;101182.16;675179;29;1203;-94
2022/07/23 01:19:16;;;;;;;17.17;13.80;;;;;;;18.47;68.87;101180.41;670295;29;1209;-93
2022/07/23 01:19:37;;;;;;;17.50;13.98;;;;;;;18.51;68.64;101186.59;672875;29;1366;-93
2022/07/23 01:19:57;;;;;;;19.13;14.43;;;;;;;18.50;68.80;101180.41;670036;29;1187;-93
2022/07/23 01:20:20;;;;;;;19.10;14.38;;;;;;;18.46;68.89;101176.00;672765;29;1267;-93
2022/07/23 01:20:41;;;;;;;18.65;14.13;;;;;;;18.54;68.91;101185.69;670107;29;1204;-94
2022/07/23 01:21:03;;;;;;;16.60;13.23;;;;;;;18.47;68.90;101179.50;672766;29;1188;-94
2022/07/23 01:21:24;;;;;;;17.33;13.70;;;;;;;18.51;68.68;101181.28;675352;29;1100;-93
2022/07/23 01:21:48;;;;;;;19.20;14.40;;;;;;;18.46;68.84;101173.38;675440;29;1277;-93
2022/07/23 01:22:10;;;;;;;20.35;14.35;;;;;;;18.45;68.88;101170.72;674347;29;1368;-92
2022/07/23 01:22:30;;;;;;;21.33;14.60;;;;;;;18.47;68.87;101166.28;675402;29;1306;-93
2022/07/23 01:22:52;;;;;;;20.25;14.13;;;;;;;18.47;68.90;101175.13;670241;29;1151;-94
2022/07/23 01:23:13;;;;;;;19.63;14.57;;;;;;;18.48;68.92;101171.59;667678;29;1203;-93
2022/07/23 01:23:40;;;;;;;19.90;14.70;;;;;;;18.44;68.99;101166.31;672811;29;1285;-93
2022/07/23 01:24:01;;;;;;;18.85;14.73;;;;;;;18.44;69.09;101158.38;675229;29;1299;-93
2022/07/23 01:24:22;;;;;;;19.83;14.90;;;;;;;18.52;69.03;101171.59;672728;29;1266;-93
2022/07/23 01:24:51;;;;;;;20.50;15.15;;;;;;;18.47;69.06;101171.59;675297;29;1083;-93
2022/07/23 01:25:16;;;;;;;19.92;14.38;;;;;;;18.48;68.75;101173.34;672711;29;1334;-93
2022/07/23 01:25:52;;;;;;;20.13;14.60;;;;;;;18.48;69.05;101170.69;675457;29;1444;-93
2022/07/23 01:26:15;;;;;;;20.63;14.70;;;;;;;18.47;69.07;101174.22;677873;29;1267;-93
2022/07/23 01:26:37;;;;;;;21.80;14.57;;;;;;;18.44;69.03;101179.53;675324;29;1120;-93
2022/07/23 01:26:58;;;;;;;23.15;14.60;;;;;;;18.49;68.77;101188.31;677804;29;1330;-93
2022/07/23 01:27:19;;;;;;;22.45;14.25;;;;;;;18.44;69.00;101179.53;677915;29;1181;-93
2022/07/23 01:27:42;;;;;;;21.70;13.82;;;;;;;18.40;68.74;101178.63;677992;29;1315;-93
2022/07/23 01:28:03;;;;;;;19.42;14.40;;;;;;;18.43;69.02;101186.56;675079;29;1215;-93
2022/07/23 01:28:24;;;;;;;18.70;14.35;;;;;;;18.43;69.02;101188.34;678012;29;1366;-94
2022/07/23 01:28:45;;;;;;;16.58;14.35;;;;;;;18.42;68.94;101191.81;675315;29;1249;-93
2022/07/23 01:29:06;;;;;;;17.13;13.67;;;;;;;18.39;69.13;101189.19;672755;29;1242;-93
2022/07/23 01:29:27;;;;;;;18.08;13.30;;;;;;;18.38;68.95;101184.78;677880;29;1234;-94
2022/07/23 01:29:48;;;;;;;19.83;13.13;;;;;;;18.42;69.02;101190.06;678045;29;1163;-94
2022/07/23 01:30:13;;;;;;;17.95;13.10;;;;;;;18.40;69.10;101188.31;675242;29;1488;-93
2022/07/23 01:30:34;;;;;;;15.35;13.10;;;;;;;18.39;69.05;101189.19;672631;29;1311;-94
2022/07/23 01:30:58;;;;;;;15.23;13.05;;;;;;;18.40;69.08;101199.75;677800;29;1508;-93
2022/07/23 01:31:19;;;;;;;16.15;13.40;;;;;;;18.39;69.18;101191.81;675199;29;1293;-93
2022/07/23 01:31:40;;;;;;;16.83;13.10;;;;;;;18.39;69.11;101203.28;670308;29;1233;-94
2022/07/23 01:32:01;;;;;;;17.17;12.95;;;;;;;18.30;69.18;101183.00;670013;29;1264;-93
2022/07/23 01:32:22;;;;;;;17.13;13.13;;;;;;;18.33;69.06;101183.00;675009;29;1154;-94
2022/07/23 01:32:45;;;;;;;18.90;13.95;;;;;;;18.33;69.21;101180.34;677841;29;1306;-93
2022/07/23 01:33:08;;;;;;;18.65;14.40;;;;;;;18.40;69.12;101193.59;675208;29;1212;-93
2022/07/23 01:33:29;;;;;;;18.08;14.70;;;;;;;18.35;69.14;101183.00;675495;29;1255;-93
2022/07/23 01:33:49;;;;;;;17.30;14.20;;;;;;;18.42;69.12;101189.19;672733;29;1178;-94
2022/07/23 01:34:11;;;;;;;18.50;14.00;;;;;;;18.42;69.09;101189.19;677790;29;1333;-93
2022/07/23 01:34:31;;;;;;;18.73;13.73;;;;;;;18.38;69.19;101185.66;672761;29;1156;-93
2022/07/23 01:34:52;;;;;;;18.30;13.85;;;;;;;18.39;69.21;101186.53;667593;29;1123;-93
2022/07/23 01:35:13;;;;;;;17.55;14.20;;;;;;;18.39;69.29;101181.25;672595;29;1991;-94
2022/07/23 01:35:34;;;;;;;17.10;14.38;;;;;;;18.44;69.35;101187.44;672750;29;1114;-94
2022/07/23 01:35:58;;;;;;;21.30;14.98;;;;;;;18.42;69.16;101184.78;669943;29;1456;-91
2022/07/23 01:36:20;;;;;;;21.15;15.07;;;;;;;18.39;69.30;101175.97;672594;29;1393;-94
2022/07/23 01:36:41;;;;;;;21.52;14.77;;;;;;;18.40;69.22;101181.28;667539;29;1293;-93
2022/07/23 01:37:02;;;;;;;18.40;14.50;;;;;;;18.42;69.39;101182.16;667535;29;1345;-93
2022/07/23 01:37:24;;;;;;;17.92;14.23;;;;;;;18.40;69.18;101175.09;672606;29;1195;-93
2022/07/23 01:37:45;;;;;;;18.25;14.20;;;;;;;18.36;69.22;101172.47;672685;29;1399;-93
2022/07/23 01:38:06;;;;;;;19.73;14.27;;;;;;;18.46;69.27;101183.94;675142;29;1209;-93
2022/07/23 01:38:27;;;;;;;21.42;14.60;;;;;;;18.36;69.40;101169.81;677936;29;1199;-94
2022/07/23 01:38:49;;;;;;;20.42;14.68;;;;;;;18.44;69.18;101185.66;675339;29;1375;-93
2022/07/23 01:39:10;;;;;;;18.42;14.07;;;;;;;18.39;69.11;101178.63;667489;29;1231;-93
2022/07/23 01:39:31;;;;;;;17.95;14.18;;;;;;;18.44;68.94;101184.81;675272;29;1290;-94
2022/07/23 01:39:52;;;;;;;17.70;13.60;;;;;;;18.45;69.03;101186.56;675309;29;1151;-94
2022/07/23 01:40:12;;;;;;;18.08;13.80;;;;;;;18.42;68.99;101176.88;675188;29;1217;-93
2022/07/23 01:40:33;;;;;;;17.40;13.80;;;;;;;18.42;69.08;101186.53;675202;29;1122;-93
2022/07/23 01:40:54;;;;;;;16.93;14.50;;;;;;;18.42;69.01;101186.53;675227;29;1294;-93
2022/07/23 01:41:15;;;;;;;16.17;14.18;;;;;;;18.36;69.22;101177.75;670576;29;1228;-94
2022/07/23 01:41:36;;;;;;;19.75;14.18;;;;;;;18.38;69.10;101175.06;672586;29;1492;-93
2022/07/23 01:41:58;;;;;;;21.52;14.18;;;;;;;18.40;69.07;101188.31;675151;29;1424;-93
2022/07/23 01:42:19;;;;;;;21.75;14.27;;;;;;;18.40;69.17;101186.56;675156;29;1461;-94
2022/07/23 01:42:40;;;;;;;19.47;14.80;;;;;;;18.38;69.25;101182.13;677754;29;1178;-94
2022/07/23 01:43:02;;;;;;;19.15;14.90;;;;;;;18.36;69.24;101183.03;675039;29;1429;-94
2022/07/23 01:43:25;;;;;;;19.45;14.85;;;;;;;18.40;69.28;101183.03;670214;29;1219;-94
2022/07/23 01:43:45;;;;;;;18.38;14.55;;;;;;;18.34;69.21;101173.31;670264;29;1273;-94
2022/07/23 01:44:06;;;;;;;18.10;14.40;;;;;;;18.45;69.07;101186.56;672551;29;1170;-94
2022/07/23 01:44:27;;;;;;;18.05;14.57;;;;;;;18.41;69.13;101179.50;675446;29;1166;-93
2022/07/23 01:44:48;;;;;;;17.73;14.27;;;;;;;18.41;69.19;101184.78;672743;29;1200;-93